sensor_id;sensor_type;location;lat;lon;timestamp;temperature;humidity
53802;DHT22;39709;53.334;6.534;2023-08-06T00:00:22;14.80;99.90
53802;DHT22;39709;53.334;6.534;2023-08-06T00:02:48;14.70;99.90
53802;DHT22;39709;53.334;6.534;2023-08-06T00:05:14;14.70;99.90
53802;DHT22;39709;53.334;6.534;2023-08-06T00:07:44;14.70;99.90
53802;DHT22;39709;53.334;6.534;2023-08-06T00:10:11;14.60;99.90
53802;DHT22;39709;53.334;6.534;2023-08-06T00:12:36;14.60;99.90
53802;DHT22;39709;53.334;6.534;2023-08-06T00:15:02;14.60;99.90
53802;DHT22;39709;53.334;6.534;2023-08-06T00:17:28;14.50;99.90
53802;DHT22;39709;53.334;6.534;2023-08-06T00:19:53;14.40;99.90
53802;DHT22;39709;53.334;6.534;2023-08-06T00:22:19;14.30;99.90
53802;DHT22;39709;53.334;6.534;2023-08-06T00:24:45;14.30;99.90
53802;DHT22;39709;53.334;6.534;2023-08-06T00:27:10;14.30;99.90
53802;DHT22;39709;53.334;6.534;2023-08-06T00:29:36;14.30;99.90
53802;DHT22;39709;53.334;6.534;2023-08-06T00:32:02;14.40;99.90
53802;DHT22;39709;53.334;6.534;2023-08-06T00:34:28;14.30;99.90
53802;DHT22;39709;53.334;6.534;2023-08-06T00:36:53;14.30;99.90
53802;DHT22;39709;53.334;6.534;2023-08-06T00:39:19;14.40;99.90
53802;DHT22;39709;53.334;6.534;2023-08-06T00:41:45;14.30;99.90
53802;DHT22;39709;53.334;6.534;2023-08-06T00:44:11;14.30;99.90
53802;DHT22;39709;53.334;6.534;2023-08-06T00:46:37;14.30;99.90
53802;DHT22;39709;53.334;6.534;2023-08-06T00:49:02;14.40;99.90
53802;DHT22;39709;53.334;6.534;2023-08-06T00:51:29;14.30;99.90
53802;DHT22;39709;53.334;6.534;2023-08-06T00:53:56;14.20;99.90
53802;DHT22;39709;53.334;6.534;2023-08-06T00:56:22;14.20;99.90
53802;DHT22;39709;53.334;6.534;2023-08-06T00:58:48;14.10;99.90
53802;DHT22;39709;53.334;6.534;2023-08-06T01:01:14;14.10;99.90
53802;DHT22;39709;53.334;6.534;2023-08-06T01:03:40;14.10;99.90
53802;DHT22;39709;53.334;6.534;2023-08-06T01:06:05;14.00;99.90
53802;DHT22;39709;53.334;6.534;2023-08-06T01:11:25;13.70;99.90
53802;DHT22;39709;53.334;6.534;2023-08-06T01:14:04;13.80;99.90
53802;DHT22;39709;53.334;6.534;2023-08-06T01:16:33;13.80;99.90
53802;DHT22;39709;53.334;6.534;2023-08-06T01:18:59;14.00;99.90
53802;DHT22;39709;53.334;6.534;2023-08-06T01:21:24;14.10;99.90
53802;DHT22;39709;53.334;6.534;2023-08-06T01:23:50;14.20;99.90
53802;DHT22;39709;53.334;6.534;2023-08-06T01:26:26;14.20;99.90
53802;DHT22;39709;53.334;6.534;2023-08-06T01:31:22;14.30;99.90
53802;DHT22;39709;53.334;6.534;2023-08-06T01:33:50;14.40;99.90
53802;DHT22;39709;53.334;6.534;2023-08-06T01:36:17;14.30;99.90
53802;DHT22;39709;53.334;6.534;2023-08-06T01:38:44;14.30;99.90
53802;DHT22;39709;53.334;6.534;2023-08-06T01:41:09;14.30;99.90
53802;DHT22;39709;53.334;6.534;2023-08-06T01:43:35;14.30;99.90
53802;DHT22;39709;53.334;6.534;2023-08-06T01:46:01;14.20;99.90
53802;DHT22;39709;53.334;6.534;2023-08-06T01:48:26;14.30;99.90
53802;DHT22;39709;53.334;6.534;2023-08-06T01:50:52;14.20;99.90
53802;DHT22;39709;53.334;6.534;2023-08-06T01:53:18;14.20;99.90
53802;DHT22;39709;53.334;6.534;2023-08-06T01:55:50;14.20;99.90
53802;DHT22;39709;53.334;6.534;2023-08-06T01:58:16;14.20;99.90
53802;DHT22;39709;53.334;6.534;2023-08-06T02:00:41;14.20;99.90
53802;DHT22;39709;53.334;6.534;2023-08-06T02:03:07;14.30;99.90
53802;DHT22;39709;53.334;6.534;2023-08-06T02:05:33;14.20;99.90
53802;DHT22;39709;53.334;6.534;2023-08-06T02:07:59;14.20;99.90
53802;DHT22;39709;53.334;6.534;2023-08-06T02:10:24;14.20;99.90
53802;DHT22;39709;53.334;6.534;2023-08-06T02:12:50;14.10;99.90
53802;DHT22;39709;53.334;6.534;2023-08-06T02:15:16;14.20;99.90
53802;DHT22;39709;53.334;6.534;2023-08-06T02:17:42;14.20;99.90
53802;DHT22;39709;53.334;6.534;2023-08-06T02:20:07;14.20;99.90
53802;DHT22;39709;53.334;6.534;2023-08-06T02:22:33;14.20;99.90
53802;DHT22;39709;53.334;6.534;2023-08-06T02:24:59;14.10;99.90
53802;DHT22;39709;53.334;6.534;2023-08-06T02:27:25;14.10;99.90
53802;DHT22;39709;53.334;6.534;2023-08-06T02:29:51;14.20;99.90
53802;DHT22;39709;53.334;6.534;2023-08-06T02:32:16;14.20;99.90
53802;DHT22;39709;53.334;6.534;2023-08-06T02:34:42;14.10;99.90
53802;DHT22;39709;53.334;6.534;2023-08-06T02:37:08;14.10;99.90
53802;DHT22;39709;53.334;6.534;2023-08-06T02:39:33;14.00;99.90
53802;DHT22;39709;53.334;6.534;2023-08-06T02:42:01;14.00;99.90
53802;DHT22;39709;53.334;6.534;2023-08-06T02:44:29;14.00;99.90
53802;DHT22;39709;53.334;6.534;2023-08-06T02:46:55;13.90;99.90
53802;DHT22;39709;53.334;6.534;2023-08-06T02:49:21;13.80;99.90
53802;DHT22;39709;53.334;6.534;2023-08-06T02:51:46;13.90;99.90
53802;DHT22;39709;53.334;6.534;2023-08-06T02:54:12;14.00;99.90
53802;DHT22;39709;53.334;6.534;2023-08-06T02:56:38;13.90;99.90
53802;DHT22;39709;53.334;6.534;2023-08-06T02:59:03;13.80;99.90
53802;DHT22;39709;53.334;6.534;2023-08-06T03:01:29;13.90;99.90
53802;DHT22;39709;53.334;6.534;2023-08-06T03:03:55;13.90;99.90
53802;DHT22;39709;53.334;6.534;2023-08-06T03:06:20;13.80;99.90
53802;DHT22;39709;53.334;6.534;2023-08-06T03:08:46;13.80;99.90
53802;DHT22;39709;53.334;6.534;2023-08-06T03:11:12;13.80;99.90
53802;DHT22;39709;53.334;6.534;2023-08-06T03:13:37;13.90;99.90
53802;DHT22;39709;53.334;6.534;2023-08-06T03:16:03;13.80;99.90
53802;DHT22;39709;53.334;6.534;2023-08-06T03:18:29;14.00;99.90
53802;DHT22;39709;53.334;6.534;2023-08-06T03:20:55;14.00;99.90
53802;DHT22;39709;53.334;6.534;2023-08-06T03:23:21;14.00;99.90
53802;DHT22;39709;53.334;6.534;2023-08-06T03:25:46;14.10;99.90
53802;DHT22;39709;53.334;6.534;2023-08-06T03:28:12;14.10;99.90
53802;DHT22;39709;53.334;6.534;2023-08-06T03:30:38;14.10;99.90
53802;DHT22;39709;53.334;6.534;2023-08-06T03:33:04;14.10;99.90
53802;DHT22;39709;53.334;6.534;2023-08-06T03:35:29;14.10;99.90
53802;DHT22;39709;53.334;6.534;2023-08-06T03:37:55;14.10;99.90
53802;DHT22;39709;53.334;6.534;2023-08-06T03:40:21;14.10;99.90
53802;DHT22;39709;53.334;6.534;2023-08-06T03:42:47;14.10;99.90
53802;DHT22;39709;53.334;6.534;2023-08-06T03:45:12;14.10;99.90
53802;DHT22;39709;53.334;6.534;2023-08-06T03:47:38;14.00;99.90
53802;DHT22;39709;53.334;6.534;2023-08-06T03:50:04;14.00;99.90
53802;DHT22;39709;53.334;6.534;2023-08-06T03:52:30;14.00;99.90
53802;DHT22;39709;53.334;6.534;2023-08-06T03:54:56;13.90;99.90
53802;DHT22;39709;53.334;6.534;2023-08-06T03:57:21;13.80;99.90
53802;DHT22;39709;53.334;6.534;2023-08-06T03:59:47;13.90;99.90
53802;DHT22;39709;53.334;6.534;2023-08-06T04:02:12;13.80;99.90
53802;DHT22;39709;53.334;6.534;2023-08-06T04:04:38;13.90;99.90
53802;DHT22;39709;53.334;6.534;2023-08-06T04:07:04;13.80;99.90
53802;DHT22;39709;53.334;6.534;2023-08-06T04:09:30;13.80;99.90
53802;DHT22;39709;53.334;6.534;2023-08-06T04:11:55;13.80;99.90
53802;DHT22;39709;53.334;6.534;2023-08-06T04:14:21;13.80;99.90
53802;DHT22;39709;53.334;6.534;2023-08-06T04:16:47;13.90;99.90
53802;DHT22;39709;53.334;6.534;2023-08-06T04:19:13;13.90;99.90
53802;DHT22;39709;53.334;6.534;2023-08-06T04:21:38;13.80;99.90
53802;DHT22;39709;53.334;6.534;2023-08-06T04:24:04;13.80;99.90
53802;DHT22;39709;53.334;6.534;2023-08-06T04:26:30;13.80;99.90
53802;DHT22;39709;53.334;6.534;2023-08-06T04:28:55;13.70;99.90
53802;DHT22;39709;53.334;6.534;2023-08-06T04:31:21;13.70;99.90
53802;DHT22;39709;53.334;6.534;2023-08-06T04:33:48;13.60;99.90
53802;DHT22;39709;53.334;6.534;2023-08-06T04:36:14;13.70;99.90
53802;DHT22;39709;53.334;6.534;2023-08-06T04:38:39;13.50;99.90
53802;DHT22;39709;53.334;6.534;2023-08-06T04:41:10;13.80;99.90
53802;DHT22;39709;53.334;6.534;2023-08-06T04:43:36;13.70;99.90
53802;DHT22;39709;53.334;6.534;2023-08-06T04:46:02;13.70;99.90
53802;DHT22;39709;53.334;6.534;2023-08-06T04:48:27;13.80;99.90
53802;DHT22;39709;53.334;6.534;2023-08-06T04:50:53;13.90;99.90
53802;DHT22;39709;53.334;6.534;2023-08-06T04:53:19;13.90;99.90
53802;DHT22;39709;53.334;6.534;2023-08-06T04:55:45;13.90;99.90
53802;DHT22;39709;53.334;6.534;2023-08-06T04:58:12;14.00;99.90
53802;DHT22;39709;53.334;6.534;2023-08-06T05:00:38;14.00;99.90
53802;DHT22;39709;53.334;6.534;2023-08-06T05:03:05;14.00;99.90
53802;DHT22;39709;53.334;6.534;2023-08-06T05:05:31;14.00;99.90
53802;DHT22;39709;53.334;6.534;2023-08-06T05:07:57;14.00;99.90
53802;DHT22;39709;53.334;6.534;2023-08-06T05:10:25;13.90;99.90
53802;DHT22;39709;53.334;6.534;2023-08-06T05:12:51;14.00;99.90
53802;DHT22;39709;53.334;6.534;2023-08-06T05:15:17;13.90;99.90
53802;DHT22;39709;53.334;6.534;2023-08-06T05:17:42;14.00;99.90
53802;DHT22;39709;53.334;6.534;2023-08-06T05:20:08;13.90;99.90
53802;DHT22;39709;53.334;6.534;2023-08-06T05:22:34;13.80;99.90
53802;DHT22;39709;53.334;6.534;2023-08-06T05:25:00;13.90;99.90
53802;DHT22;39709;53.334;6.534;2023-08-06T05:27:25;13.90;99.90
53802;DHT22;39709;53.334;6.534;2023-08-06T05:29:55;13.80;99.90
53802;DHT22;39709;53.334;6.534;2023-08-06T05:32:21;13.80;99.90
53802;DHT22;39709;53.334;6.534;2023-08-06T05:34:47;13.80;99.90
53802;DHT22;39709;53.334;6.534;2023-08-06T05:37:13;14.00;99.90
53802;DHT22;39709;53.334;6.534;2023-08-06T05:39:38;13.90;99.90
53802;DHT22;39709;53.334;6.534;2023-08-06T05:42:04;14.00;99.90
53802;DHT22;39709;53.334;6.534;2023-08-06T05:44:30;13.90;99.90
53802;DHT22;39709;53.334;6.534;2023-08-06T05:46:56;14.10;99.90
53802;DHT22;39709;53.334;6.534;2023-08-06T05:49:22;14.00;99.90
53802;DHT22;39709;53.334;6.534;2023-08-06T05:51:47;14.00;99.90
53802;DHT22;39709;53.334;6.534;2023-08-06T05:54:14;14.00;99.90
53802;DHT22;39709;53.334;6.534;2023-08-06T05:56:39;14.10;99.90
53802;DHT22;39709;53.334;6.534;2023-08-06T05:59:05;14.20;99.90
53802;DHT22;39709;53.334;6.534;2023-08-06T06:01:30;14.20;99.90
53802;DHT22;39709;53.334;6.534;2023-08-06T06:03:56;14.20;99.90
53802;DHT22;39709;53.334;6.534;2023-08-06T06:06:22;14.10;99.90
53802;DHT22;39709;53.334;6.534;2023-08-06T06:08:47;14.30;99.90
53802;DHT22;39709;53.334;6.534;2023-08-06T06:11:13;14.20;99.90
53802;DHT22;39709;53.334;6.534;2023-08-06T06:13:39;14.30;99.90
53802;DHT22;39709;53.334;6.534;2023-08-06T06:16:04;14.40;99.90
53802;DHT22;39709;53.334;6.534;2023-08-06T06:18:30;14.40;99.90
53802;DHT22;39709;53.334;6.534;2023-08-06T06:20:56;14.50;99.90
53802;DHT22;39709;53.334;6.534;2023-08-06T06:23:22;14.60;99.90
53802;DHT22;39709;53.334;6.534;2023-08-06T06:25:50;14.60;99.90
53802;DHT22;39709;53.334;6.534;2023-08-06T06:28:19;14.70;99.90
53802;DHT22;39709;53.334;6.534;2023-08-06T06:30:45;14.80;99.90
53802;DHT22;39709;53.334;6.534;2023-08-06T06:33:11;14.90;99.90
53802;DHT22;39709;53.334;6.534;2023-08-06T06:35:36;15.10;99.90
53802;DHT22;39709;53.334;6.534;2023-08-06T06:38:02;15.20;99.90
53802;DHT22;39709;53.334;6.534;2023-08-06T06:40:28;15.30;99.90
53802;DHT22;39709;53.334;6.534;2023-08-06T06:42:54;15.20;99.90
53802;DHT22;39709;53.334;6.534;2023-08-06T06:45:19;15.40;99.90
53802;DHT22;39709;53.334;6.534;2023-08-06T06:47:45;15.40;99.90
53802;DHT22;39709;53.334;6.534;2023-08-06T06:50:11;15.40;99.90
53802;DHT22;39709;53.334;6.534;2023-08-06T06:52:37;15.50;99.90
53802;DHT22;39709;53.334;6.534;2023-08-06T06:55:03;15.50;99.90
53802;DHT22;39709;53.334;6.534;2023-08-06T06:57:29;15.50;99.90
53802;DHT22;39709;53.334;6.534;2023-08-06T06:59:54;15.70;99.90
53802;DHT22;39709;53.334;6.534;2023-08-06T07:02:20;15.70;99.90
53802;DHT22;39709;53.334;6.534;2023-08-06T07:04:46;15.80;99.90
53802;DHT22;39709;53.334;6.534;2023-08-06T07:07:12;15.80;99.90
53802;DHT22;39709;53.334;6.534;2023-08-06T07:09:37;15.80;99.90
53802;DHT22;39709;53.334;6.534;2023-08-06T07:12:03;16.00;99.90
53802;DHT22;39709;53.334;6.534;2023-08-06T07:14:29;16.00;99.90
53802;DHT22;39709;53.334;6.534;2023-08-06T07:16:55;16.10;99.90
53802;DHT22;39709;53.334;6.534;2023-08-06T07:19:20;16.20;99.90
53802;DHT22;39709;53.334;6.534;2023-08-06T07:21:46;16.40;99.90
53802;DHT22;39709;53.334;6.534;2023-08-06T07:24:12;16.50;99.90
53802;DHT22;39709;53.334;6.534;2023-08-06T07:26:38;16.60;99.90
53802;DHT22;39709;53.334;6.534;2023-08-06T07:29:04;16.70;99.90
53802;DHT22;39709;53.334;6.534;2023-08-06T07:31:29;16.90;99.90
53802;DHT22;39709;53.334;6.534;2023-08-06T07:33:55;17.00;99.90
53802;DHT22;39709;53.334;6.534;2023-08-06T07:36:21;17.00;99.90
53802;DHT22;39709;53.334;6.534;2023-08-06T07:38:46;17.20;99.90
53802;DHT22;39709;53.334;6.534;2023-08-06T07:41:14;17.20;99.90
53802;DHT22;39709;53.334;6.534;2023-08-06T07:43:39;17.30;99.90
53802;DHT22;39709;53.334;6.534;2023-08-06T07:46:05;17.30;99.90
53802;DHT22;39709;53.334;6.534;2023-08-06T07:48:31;17.40;99.90
53802;DHT22;39709;53.334;6.534;2023-08-06T07:50:57;17.40;99.90
53802;DHT22;39709;53.334;6.534;2023-08-06T07:53:24;17.40;99.90
53802;DHT22;39709;53.334;6.534;2023-08-06T07:55:53;17.40;99.90
53802;DHT22;39709;53.334;6.534;2023-08-06T07:58:20;17.40;99.90
53802;DHT22;39709;53.334;6.534;2023-08-06T08:00:46;17.60;99.90
53802;DHT22;39709;53.334;6.534;2023-08-06T08:03:14;17.50;99.90
53802;DHT22;39709;53.334;6.534;2023-08-06T08:05:41;17.60;99.90
53802;DHT22;39709;53.334;6.534;2023-08-06T08:08:06;17.60;99.90
53802;DHT22;39709;53.334;6.534;2023-08-06T08:10:33;17.70;99.90
53802;DHT22;39709;53.334;6.534;2023-08-06T08:13:00;17.80;99.90
53802;DHT22;39709;53.334;6.534;2023-08-06T08:15:28;17.80;99.90
53802;DHT22;39709;53.334;6.534;2023-08-06T08:17:54;17.80;99.90
53802;DHT22;39709;53.334;6.534;2023-08-06T08:20:20;17.90;99.90
53802;DHT22;39709;53.334;6.534;2023-08-06T08:22:46;18.00;99.90
53802;DHT22;39709;53.334;6.534;2023-08-06T08:25:12;18.00;99.90
53802;DHT22;39709;53.334;6.534;2023-08-06T08:27:38;18.00;99.90
53802;DHT22;39709;53.334;6.534;2023-08-06T08:30:04;18.10;99.90
53802;DHT22;39709;53.334;6.534;2023-08-06T08:32:29;18.30;99.90
53802;DHT22;39709;53.334;6.534;2023-08-06T08:34:55;18.50;99.90
53802;DHT22;39709;53.334;6.534;2023-08-06T08:37:22;18.50;99.90
53802;DHT22;39709;53.334;6.534;2023-08-06T08:39:48;18.70;99.90
53802;DHT22;39709;53.334;6.534;2023-08-06T08:42:15;18.70;99.90
53802;DHT22;39709;53.334;6.534;2023-08-06T08:44:42;18.90;99.90
53802;DHT22;39709;53.334;6.534;2023-08-06T08:47:09;18.90;99.90
53802;DHT22;39709;53.334;6.534;2023-08-06T08:49:36;18.90;99.90
53802;DHT22;39709;53.334;6.534;2023-08-06T08:52:03;19.00;99.90
53802;DHT22;39709;53.334;6.534;2023-08-06T08:54:33;19.10;99.90
53802;DHT22;39709;53.334;6.534;2023-08-06T08:56:59;19.20;99.90
53802;DHT22;39709;53.334;6.534;2023-08-06T08:59:27;19.10;99.90
53802;DHT22;39709;53.334;6.534;2023-08-06T09:01:53;19.20;99.90
53802;DHT22;39709;53.334;6.534;2023-08-06T09:04:21;19.10;99.90
53802;DHT22;39709;53.334;6.534;2023-08-06T09:06:50;19.10;99.90
53802;DHT22;39709;53.334;6.534;2023-08-06T09:09:26;19.30;99.90
53802;DHT22;39709;53.334;6.534;2023-08-06T09:11:57;19.20;99.90
53802;DHT22;39709;53.334;6.534;2023-08-06T09:14:25;19.30;99.90
53802;DHT22;39709;53.334;6.534;2023-08-06T09:16:51;19.50;99.90
53802;DHT22;39709;53.334;6.534;2023-08-06T09:19:17;19.60;99.90
53802;DHT22;39709;53.334;6.534;2023-08-06T09:21:44;19.30;99.70
53802;DHT22;39709;53.334;6.534;2023-08-06T09:24:14;19.30;99.90
53802;DHT22;39709;53.334;6.534;2023-08-06T09:26:43;19.40;99.90
53802;DHT22;39709;53.334;6.534;2023-08-06T09:29:10;19.50;99.90
53802;DHT22;39709;53.334;6.534;2023-08-06T09:31:47;19.50;99.90
53802;DHT22;39709;53.334;6.534;2023-08-06T09:34:18;19.50;99.90
53802;DHT22;39709;53.334;6.534;2023-08-06T09:36:48;19.80;99.90
53802;DHT22;39709;53.334;6.534;2023-08-06T09:39:17;19.60;99.90
53802;DHT22;39709;53.334;6.534;2023-08-06T09:41:43;19.70;99.10
53802;DHT22;39709;53.334;6.534;2023-08-06T09:44:20;19.60;99.90
53802;DHT22;39709;53.334;6.534;2023-08-06T09:46:55;19.90;99.90
53802;DHT22;39709;53.334;6.534;2023-08-06T09:49:25;19.70;99.90
53802;DHT22;39709;53.334;6.534;2023-08-06T09:51:52;20.00;99.90
53802;DHT22;39709;53.334;6.534;2023-08-06T09:54:23;20.00;99.90
53802;DHT22;39709;53.334;6.534;2023-08-06T09:56:48;20.00;94.50
53802;DHT22;39709;53.334;6.534;2023-08-06T09:59:15;19.90;96.80
53802;DHT22;39709;53.334;6.534;2023-08-06T10:01:41;19.80;97.40
53802;DHT22;39709;53.334;6.534;2023-08-06T10:04:07;19.90;94.50
53802;DHT22;39709;53.334;6.534;2023-08-06T10:06:35;20.10;97.10
53802;DHT22;39709;53.334;6.534;2023-08-06T10:09:02;20.20;95.10
53802;DHT22;39709;53.334;6.534;2023-08-06T10:11:29;20.00;95.40
53802;DHT22;39709;53.334;6.534;2023-08-06T10:14:11;20.10;92.70
53802;DHT22;39709;53.334;6.534;2023-08-06T10:16:38;20.00;90.40
53802;DHT22;39709;53.334;6.534;2023-08-06T10:19:05;20.10;92.90
53802;DHT22;39709;53.334;6.534;2023-08-06T10:21:32;20.10;92.30
53802;DHT22;39709;53.334;6.534;2023-08-06T10:23:58;20.40;95.90
53802;DHT22;39709;53.334;6.534;2023-08-06T10:26:28;20.50;93.40
53802;DHT22;39709;53.334;6.534;2023-08-06T10:28:54;20.30;87.60
53802;DHT22;39709;53.334;6.534;2023-08-06T10:31:20;20.30;92.00
53802;DHT22;39709;53.334;6.534;2023-08-06T10:33:47;20.40;89.00
53802;DHT22;39709;53.334;6.534;2023-08-06T10:36:14;20.20;82.40
53802;DHT22;39709;53.334;6.534;2023-08-06T10:38:49;20.20;84.50
53802;DHT22;39709;53.334;6.534;2023-08-06T10:41:35;20.30;89.20
53802;DHT22;39709;53.334;6.534;2023-08-06T10:44:11;20.50;90.60
53802;DHT22;39709;53.334;6.534;2023-08-06T10:46:37;20.40;84.40
53802;DHT22;39709;53.334;6.534;2023-08-06T10:49:04;20.60;90.00
53802;DHT22;39709;53.334;6.534;2023-08-06T10:51:30;20.50;84.80
53802;DHT22;39709;53.334;6.534;2023-08-06T10:53:56;20.60;92.90
53802;DHT22;39709;53.334;6.534;2023-08-06T10:56:24;20.10;75.30
53802;DHT22;39709;53.334;6.534;2023-08-06T10:58:53;20.20;90.10
53802;DHT22;39709;53.334;6.534;2023-08-06T11:01:19;20.40;89.50
53802;DHT22;39709;53.334;6.534;2023-08-06T11:03:47;20.30;85.20
53802;DHT22;39709;53.334;6.534;2023-08-06T11:06:21;20.30;84.30
53802;DHT22;39709;53.334;6.534;2023-08-06T11:08:55;20.50;88.40
53802;DHT22;39709;53.334;6.534;2023-08-06T11:11:21;20.40;83.50
53802;DHT22;39709;53.334;6.534;2023-08-06T11:13:49;20.20;72.30
53802;DHT22;39709;53.334;6.534;2023-08-06T11:16:17;20.40;79.20
53802;DHT22;39709;53.334;6.534;2023-08-06T11:18:44;20.40;76.20
53802;DHT22;39709;53.334;6.534;2023-08-06T11:21:10;20.60;79.40
53802;DHT22;39709;53.334;6.534;2023-08-06T11:23:37;20.90;80.30
53802;DHT22;39709;53.334;6.534;2023-08-06T11:26:04;20.80;81.40
53802;DHT22;39709;53.334;6.534;2023-08-06T11:28:30;20.80;81.40
53802;DHT22;39709;53.334;6.534;2023-08-06T11:30:55;20.60;91.60
53802;DHT22;39709;53.334;6.534;2023-08-06T11:33:23;20.90;87.00
53802;DHT22;39709;53.334;6.534;2023-08-06T11:35:56;20.80;80.60
53802;DHT22;39709;53.334;6.534;2023-08-06T11:38:28;20.60;91.80
53802;DHT22;39709;53.334;6.534;2023-08-06T11:40:54;20.80;88.40
53802;DHT22;39709;53.334;6.534;2023-08-06T11:43:21;20.70;83.70
53802;DHT22;39709;53.334;6.534;2023-08-06T11:45:48;20.50;87.30
53802;DHT22;39709;53.334;6.534;2023-08-06T11:48:14;20.60;89.30
53802;DHT22;39709;53.334;6.534;2023-08-06T11:50:40;20.90;84.90
53802;DHT22;39709;53.334;6.534;2023-08-06T11:53:06;20.80;78.00
53802;DHT22;39709;53.334;6.534;2023-08-06T11:55:32;20.70;90.10
53802;DHT22;39709;53.334;6.534;2023-08-06T11:58:03;20.40;90.50
53802;DHT22;39709;53.334;6.534;2023-08-06T12:00:38;20.30;84.10
53802;DHT22;39709;53.334;6.534;2023-08-06T12:03:10;20.70;85.30
53802;DHT22;39709;53.334;6.534;2023-08-06T12:05:36;20.70;78.70
53802;DHT22;39709;53.334;6.534;2023-08-06T12:08:03;20.50;87.70
53802;DHT22;39709;53.334;6.534;2023-08-06T12:10:31;20.80;86.50
53802;DHT22;39709;53.334;6.534;2023-08-06T12:12:57;20.70;78.90
53802;DHT22;39709;53.334;6.534;2023-08-06T12:15:23;20.50;87.30
53802;DHT22;39709;53.334;6.534;2023-08-06T12:17:49;20.50;87.90
53802;DHT22;39709;53.334;6.534;2023-08-06T12:20:15;20.40;85.20
53802;DHT22;39709;53.334;6.534;2023-08-06T12:22:41;20.60;89.20
53802;DHT22;39709;53.334;6.534;2023-08-06T12:25:08;20.70;85.70
53802;DHT22;39709;53.334;6.534;2023-08-06T12:27:38;21.10;77.20
53802;DHT22;39709;53.334;6.534;2023-08-06T12:30:05;20.80;72.50
53802;DHT22;39709;53.334;6.534;2023-08-06T12:32:31;20.70;66.50
53802;DHT22;39709;53.334;6.534;2023-08-06T12:34:57;20.70;79.20
53802;DHT22;39709;53.334;6.534;2023-08-06T12:37:23;20.80;76.10
53802;DHT22;39709;53.334;6.534;2023-08-06T12:39:49;20.80;81.80
53802;DHT22;39709;53.334;6.534;2023-08-06T12:42:15;21.00;76.70
53802;DHT22;39709;53.334;6.534;2023-08-06T12:44:40;20.90;74.70
53802;DHT22;39709;53.334;6.534;2023-08-06T12:47:09;20.60;71.10
53802;DHT22;39709;53.334;6.534;2023-08-06T12:49:35;20.50;73.20
53802;DHT22;39709;53.334;6.534;2023-08-06T12:52:01;20.50;78.30
53802;DHT22;39709;53.334;6.534;2023-08-06T12:54:27;20.50;82.60
53802;DHT22;39709;53.334;6.534;2023-08-06T12:56:54;20.50;86.00
53802;DHT22;39709;53.334;6.534;2023-08-06T12:59:19;20.50;86.70
53802;DHT22;39709;53.334;6.534;2023-08-06T13:01:46;20.50;85.20
53802;DHT22;39709;53.334;6.534;2023-08-06T13:04:12;20.30;78.00
53802;DHT22;39709;53.334;6.534;2023-08-06T13:06:38;20.30;74.80
53802;DHT22;39709;53.334;6.534;2023-08-06T13:09:09;20.50;78.40
53802;DHT22;39709;53.334;6.534;2023-08-06T13:11:36;20.50;74.80
53802;DHT22;39709;53.334;6.534;2023-08-06T13:14:13;20.40;78.30
53802;DHT22;39709;53.334;6.534;2023-08-06T13:16:41;20.30;73.00
53802;DHT22;39709;53.334;6.534;2023-08-06T13:19:07;20.20;72.30
53802;DHT22;39709;53.334;6.534;2023-08-06T13:24:07;20.30;75.70
53802;DHT22;39709;53.334;6.534;2023-08-06T13:26:33;20.30;72.70
53802;DHT22;39709;53.334;6.534;2023-08-06T13:29:00;20.40;80.20
53802;DHT22;39709;53.334;6.534;2023-08-06T13:31:26;20.40;78.90
53802;DHT22;39709;53.334;6.534;2023-08-06T13:33:53;20.20;74.30
53802;DHT22;39709;53.334;6.534;2023-08-06T13:36:21;20.10;72.40
53802;DHT22;39709;53.334;6.534;2023-08-06T13:38:47;20.20;65.60
53802;DHT22;39709;53.334;6.534;2023-08-06T13:41:12;20.10;57.60
53802;DHT22;39709;53.334;6.534;2023-08-06T13:43:39;20.10;66.60
53802;DHT22;39709;53.334;6.534;2023-08-06T13:46:05;20.10;58.10
53802;DHT22;39709;53.334;6.534;2023-08-06T13:48:30;20.10;69.30
53802;DHT22;39709;53.334;6.534;2023-08-06T13:50:56;20.10;76.90
53802;DHT22;39709;53.334;6.534;2023-08-06T13:53:22;20.30;74.00
53802;DHT22;39709;53.334;6.534;2023-08-06T13:55:48;20.40;73.00
53802;DHT22;39709;53.334;6.534;2023-08-06T13:58:13;20.30;72.20
53802;DHT22;39709;53.334;6.534;2023-08-06T14:00:39;20.20;66.70
53802;DHT22;39709;53.334;6.534;2023-08-06T14:03:05;20.20;68.00
53802;DHT22;39709;53.334;6.534;2023-08-06T14:05:30;20.30;62.90
53802;DHT22;39709;53.334;6.534;2023-08-06T14:07:56;20.30;68.30
53802;DHT22;39709;53.334;6.534;2023-08-06T14:10:22;20.40;74.00
53802;DHT22;39709;53.334;6.534;2023-08-06T14:12:47;20.40;74.30
53802;DHT22;39709;53.334;6.534;2023-08-06T14:15:13;20.30;73.50
53802;DHT22;39709;53.334;6.534;2023-08-06T14:17:39;20.40;63.30
53802;DHT22;39709;53.334;6.534;2023-08-06T14:20:05;20.40;64.00
53802;DHT22;39709;53.334;6.534;2023-08-06T14:22:33;20.50;63.10
53802;DHT22;39709;53.334;6.534;2023-08-06T14:24:59;20.50;72.70
53802;DHT22;39709;53.334;6.534;2023-08-06T14:27:25;20.40;67.10
53802;DHT22;39709;53.334;6.534;2023-08-06T14:29:51;20.50;64.30
53802;DHT22;39709;53.334;6.534;2023-08-06T14:32:16;20.40;55.40
53802;DHT22;39709;53.334;6.534;2023-08-06T14:34:44;20.70;73.00
53802;DHT22;39709;53.334;6.534;2023-08-06T14:37:10;20.70;71.70
53802;DHT22;39709;53.334;6.534;2023-08-06T14:39:36;20.70;70.10
53802;DHT22;39709;53.334;6.534;2023-08-06T14:42:02;20.70;65.90
53802;DHT22;39709;53.334;6.534;2023-08-06T14:44:28;20.50;67.40
53802;DHT22;39709;53.334;6.534;2023-08-06T14:46:54;20.40;65.30
53802;DHT22;39709;53.334;6.534;2023-08-06T14:49:19;20.40;64.70
53802;DHT22;39709;53.334;6.534;2023-08-06T14:51:45;20.50;63.90
53802;DHT22;39709;53.334;6.534;2023-08-06T14:54:11;20.50;60.80
53802;DHT22;39709;53.334;6.534;2023-08-06T14:56:37;20.40;65.20
53802;DHT22;39709;53.334;6.534;2023-08-06T14:59:03;20.60;68.40
53802;DHT22;39709;53.334;6.534;2023-08-06T15:01:28;20.60;56.30
53802;DHT22;39709;53.334;6.534;2023-08-06T15:03:54;20.60;58.90
53802;DHT22;39709;53.334;6.534;2023-08-06T15:06:20;20.80;65.60
53802;DHT22;39709;53.334;6.534;2023-08-06T15:08:45;20.70;45.90
53802;DHT22;39709;53.334;6.534;2023-08-06T15:11:13;20.90;54.80
53802;DHT22;39709;53.334;6.534;2023-08-06T15:13:39;20.80;30.60
53802;DHT22;39709;53.334;6.534;2023-08-06T15:16:04;20.90;38.30
53802;DHT22;39709;53.334;6.534;2023-08-06T15:18:30;20.80;35.20
53802;DHT22;39709;53.334;6.534;2023-08-06T15:20:56;20.90;34.80
53802;DHT22;39709;53.334;6.534;2023-08-06T15:23:23;21.00;53.40
53802;DHT22;39709;53.334;6.534;2023-08-06T15:25:49;21.20;44.60
53802;DHT22;39709;53.334;6.534;2023-08-06T15:28:14;21.20;43.90
53802;DHT22;39709;53.334;6.534;2023-08-06T15:30:40;21.30;44.30
53802;DHT22;39709;53.334;6.534;2023-08-06T15:33:10;21.10;29.70